EXS1366 LGIR-EGBB
Flight info
| Callsign | EXS1366 |
|---|---|
| Flight time | N/A |
| Altitude | 38000 |
| Route | EPALO M749 DIRMI UM749 SIGFO DCT BAMOS UL617 AGISA DCT BITLA DCT DOBAR DCT MOKUN DCT NERRA DCT TIKSA DCT SIPAL DCT PUL DCT ROTAR DCT ROSKA DCT UNTAD DCT RESIA DCT ELMUR DCT RIPUS DCT DITON DCT HOC DCT LUL DCT RLP DCT ROTSI DCT KOTUN DCT NINAL DCT ABNUR DCT DIMAL DCT ALESO T420 HEMEL |
| Aircraft | A21N/M-SDE2E3FGHIRWXY/LB1 |
Departure
| Time | 2026-05-05 17:43 |
|---|---|
| Airport | Heraklion International Nikos Kazantzakis Airport (LGIR) |
Arrival
| Time | N/A |
|---|---|
| Airport | Birmingham Airport (EGBB) |
| Time | Latitude | Longitude | Altitude | Speed | Heading |
|---|---|---|---|---|---|
| 2026-05-05 17:24 | 35.33873 | 25.17429 | 94 ft | 0 kts | 316° |
| 2026-05-05 17:38 | 35.33874 | 25.17427 | 94 ft | 1 kts | 316° |
| 2026-05-05 17:38 | 35.33885 | 25.17417 | 98 ft | 5 kts | 330° |
| 2026-05-05 17:38 | 35.33911 | 25.17447 | 98 ft | 7 kts | 76° |
| 2026-05-05 17:39 | 35.33912 | 25.17514 | 97 ft | 9 kts | 95° |
| 2026-05-05 17:39 | 35.33905 | 25.17599 | 96 ft | 11 kts | 96° |
| 2026-05-05 17:39 | 35.33897 | 25.17700 | 97 ft | 13 kts | 95° |
| 2026-05-05 17:39 | 35.33889 | 25.17815 | 95 ft | 15 kts | 94° |
| 2026-05-05 17:40 | 35.33880 | 25.17948 | 98 ft | 17 kts | 95° |
| 2026-05-05 17:40 | 35.33870 | 25.18097 | 98 ft | 18 kts | 95° |
| 2026-05-05 17:40 | 35.33859 | 25.18256 | 96 ft | 20 kts | 95° |
| 2026-05-05 17:40 | 35.33847 | 25.18434 | 95 ft | 22 kts | 95° |
| 2026-05-05 17:41 | 35.33838 | 25.18562 | 94 ft | 23 kts | 95° |
| 2026-05-05 17:41 | 35.33819 | 25.18835 | 94 ft | 21 kts | 94° |
| 2026-05-05 17:41 | 35.33829 | 25.18944 | 95 ft | 4 kts | 58° |
| 2026-05-05 17:41 | 35.33853 | 25.18991 | 93 ft | 16 kts | 58° |
| 2026-05-05 17:42 | 35.33901 | 25.19028 | 94 ft | 7 kts | 331° |
| 2026-05-05 17:42 | 35.33912 | 25.18962 | 94 ft | 13 kts | 274° |
| 2026-05-05 17:42 | 35.33934 | 25.18619 | 92 ft | 71 kts | 275° |
| 2026-05-05 17:42 | 35.33993 | 25.17748 | 96 ft | 135 kts | 275° |
| 2026-05-05 17:43 | 35.34064 | 25.16472 | 434 ft | 152 kts | 274° |
| 2026-05-05 17:43 | 35.34172 | 25.15190 | 1059 ft | 151 kts | 288° |
| 2026-05-05 17:43 | 35.34819 | 25.14232 | 1632 ft | 153 kts | 334° |
| 2026-05-05 17:43 | 35.35919 | 25.13879 | 1999 ft | 175 kts | 345° |
| 2026-05-05 17:44 | 35.37179 | 25.13572 | 2336 ft | 193 kts | 346° |
| 2026-05-05 17:44 | 35.38531 | 25.13225 | 2722 ft | 205 kts | 345° |
| 2026-05-05 17:44 | 35.39961 | 25.12778 | 3010 ft | 221 kts | 342° |
| 2026-05-05 17:44 | 35.41497 | 25.12175 | 3290 ft | 240 kts | 339° |
| 2026-05-05 17:45 | 35.43104 | 25.11499 | 3741 ft | 249 kts | 340° |
| 2026-05-05 17:45 | 35.44763 | 25.10852 | 4323 ft | 252 kts | 343° |
| 2026-05-05 17:45 | 35.46454 | 25.10262 | 4961 ft | 254 kts | 345° |
| 2026-05-05 17:45 | 35.48160 | 25.09669 | 5632 ft | 254 kts | 345° |
| 2026-05-05 17:46 | 35.49857 | 25.09066 | 6334 ft | 254 kts | 345° |
| 2026-05-05 17:46 | 35.51539 | 25.08457 | 6971 ft | 256 kts | 345° |
| 2026-05-05 17:46 | 35.53252 | 25.07831 | 7591 ft | 258 kts | 344° |
| 2026-05-05 17:46 | 35.54976 | 25.07196 | 8190 ft | 260 kts | 344° |
| 2026-05-05 17:47 | 35.56714 | 25.06553 | 8792 ft | 262 kts | 344° |
| 2026-05-05 17:47 | 35.58473 | 25.05901 | 9602 ft | 265 kts | 343° |
| 2026-05-05 17:47 | 35.60251 | 25.05241 | 10439 ft | 270 kts | 343° |
| 2026-05-05 17:47 | 35.62118 | 25.04547 | 10834 ft | 291 kts | 343° |
| 2026-05-05 17:48 | 35.64123 | 25.03802 | 11163 ft | 312 kts | 343° |
| 2026-05-05 17:48 | 35.66269 | 25.03002 | 11487 ft | 332 kts | 343° |
| 2026-05-05 17:48 | 35.68525 | 25.02162 | 11969 ft | 345 kts | 343° |
| 2026-05-05 17:48 | 35.70850 | 25.01292 | 12664 ft | 352 kts | 342° |
| 2026-05-05 17:49 | 35.73186 | 25.00328 | 13382 ft | 357 kts | 340° |
| 2026-05-05 17:49 | 35.75535 | 24.99265 | 14085 ft | 361 kts | 339° |
| 2026-05-05 17:49 | 35.77891 | 24.98148 | 14736 ft | 364 kts | 338° |
| 2026-05-05 17:49 | 35.80254 | 24.97010 | 15418 ft | 366 kts | 338° |
| 2026-05-05 17:50 | 35.82632 | 24.95865 | 16099 ft | 368 kts | 338° |
| 2026-05-05 17:50 | 35.85022 | 24.94719 | 16777 ft | 370 kts | 338° |
| 2026-05-05 17:50 | 35.87427 | 24.93574 | 17447 ft | 371 kts | 338° |
| 2026-05-05 17:50 | 35.89845 | 24.92428 | 18089 ft | 374 kts | 338° |
| 2026-05-05 17:51 | 35.92282 | 24.91276 | 18655 ft | 376 kts | 338° |
| 2026-05-05 17:51 | 35.94731 | 24.90120 | 19181 ft | 378 kts | 338° |
| 2026-05-05 17:51 | 35.97193 | 24.88958 | 19698 ft | 381 kts | 338° |
| 2026-05-05 17:51 | 35.99679 | 24.87785 | 20244 ft | 383 kts | 338° |
| 2026-05-05 17:52 | 36.02175 | 24.86605 | 20774 ft | 384 kts | 338° |
| 2026-05-05 17:52 | 36.04679 | 24.85420 | 21290 ft | 386 kts | 338° |
| 2026-05-05 17:52 | 36.07161 | 24.84245 | 21763 ft | 388 kts | 338° |
| 2026-05-05 17:52 | 36.09691 | 24.83048 | 22259 ft | 390 kts | 338° |
| 2026-05-05 17:53 | 36.12232 | 24.81843 | 22743 ft | 392 kts | 338° |
| 2026-05-05 17:53 | 36.14786 | 24.80633 | 23216 ft | 394 kts | 338° |
| 2026-05-05 17:53 | 36.17354 | 24.79414 | 23671 ft | 396 kts | 338° |
| 2026-05-05 17:53 | 36.19929 | 24.78192 | 23980 ft | 398 kts | 338° |
| 2026-05-05 17:54 | 36.22512 | 24.76964 | 24076 ft | 398 kts | 337° |
| 2026-05-05 17:54 | 36.25112 | 24.75728 | 24219 ft | 402 kts | 337° |
| 2026-05-05 17:54 | 36.27728 | 24.74483 | 24637 ft | 402 kts | 338° |
| 2026-05-05 17:54 | 36.30342 | 24.73238 | 25079 ft | 403 kts | 338° |
| 2026-05-05 17:55 | 36.32962 | 24.71990 | 25491 ft | 404 kts | 337° |
| 2026-05-05 17:55 | 36.35595 | 24.70735 | 25885 ft | 406 kts | 337° |
| 2026-05-05 17:55 | 36.38233 | 24.69476 | 26263 ft | 408 kts | 337° |
| 2026-05-05 17:55 | 36.40887 | 24.68208 | 26629 ft | 409 kts | 337° |
| 2026-05-05 17:56 | 36.43547 | 24.66937 | 26971 ft | 410 kts | 337° |
| 2026-05-05 17:56 | 36.46210 | 24.65663 | 27438 ft | 409 kts | 337° |
| 2026-05-05 17:56 | 36.48850 | 24.64401 | 27995 ft | 405 kts | 337° |
| 2026-05-05 17:56 | 36.51470 | 24.63147 | 28560 ft | 401 kts | 337° |
| 2026-05-05 17:57 | 36.54063 | 24.61905 | 29075 ft | 398 kts | 337° |
| 2026-05-05 17:57 | 36.55769 | 24.61087 | 29391 ft | 397 kts | 337° |
| 2026-05-05 17:57 | 36.59175 | 24.59452 | 30015 ft | 394 kts | 337° |
| 2026-05-05 17:57 | 36.61723 | 24.58228 | 30409 ft | 393 kts | 337° |
| 2026-05-05 17:58 | 36.64274 | 24.57001 | 30718 ft | 393 kts | 337° |
| 2026-05-05 17:58 | 36.66822 | 24.55774 | 31009 ft | 393 kts | 337° |
| 2026-05-05 17:58 | 36.69372 | 24.54546 | 31309 ft | 393 kts | 337° |
| 2026-05-05 17:58 | 36.71919 | 24.53318 | 31579 ft | 393 kts | 337° |
| 2026-05-05 17:59 | 36.74443 | 24.52038 | 31958 ft | 390 kts | 334° |
| 2026-05-05 17:59 | 36.76892 | 24.50605 | 32317 ft | 388 kts | 333° |
| 2026-05-05 17:59 | 36.79322 | 24.49144 | 32602 ft | 388 kts | 333° |
| 2026-05-05 17:59 | 36.81746 | 24.47662 | 32859 ft | 388 kts | 332° |
| 2026-05-05 18:00 | 36.84166 | 24.46168 | 33137 ft | 387 kts | 332° |
| 2026-05-05 18:00 | 36.86572 | 24.44675 | 33426 ft | 386 kts | 332° |
| 2026-05-05 18:00 | 36.88981 | 24.43180 | 33675 ft | 386 kts | 332° |
| 2026-05-05 18:00 | 36.91386 | 24.41687 | 33927 ft | 386 kts | 332° |
| 2026-05-05 18:01 | 36.93793 | 24.40194 | 34163 ft | 386 kts | 332° |
| 2026-05-05 18:01 | 36.96193 | 24.38706 | 34349 ft | 386 kts | 332° |
| 2026-05-05 18:01 | 36.98595 | 24.37217 | 34579 ft | 384 kts | 333° |
| 2026-05-05 18:01 | 37.00980 | 24.35738 | 34874 ft | 381 kts | 332° |
| 2026-05-05 18:02 | 37.03355 | 24.34264 | 35062 ft | 381 kts | 332° |
| 2026-05-05 18:02 | 37.05733 | 24.32785 | 35209 ft | 382 kts | 332° |
| 2026-05-05 18:02 | 37.08115 | 24.31303 | 35360 ft | 382 kts | 332° |
| 2026-05-05 18:02 | 37.10497 | 24.29821 | 35522 ft | 383 kts | 332° |
| 2026-05-05 18:03 | 37.12884 | 24.28334 | 35678 ft | 383 kts | 332° |
| 2026-05-05 18:03 | 37.15266 | 24.26850 | 35833 ft | 383 kts | 332° |
| 2026-05-05 18:03 | 37.17648 | 24.25364 | 35980 ft | 383 kts | 332° |
| 2026-05-05 18:03 | 37.20034 | 24.23875 | 36127 ft | 383 kts | 332° |
| 2026-05-05 18:04 | 37.22422 | 24.22384 | 36266 ft | 383 kts | 332° |
| 2026-05-05 18:04 | 37.24808 | 24.20893 | 36446 ft | 383 kts | 332° |
| 2026-05-05 18:04 | 37.27189 | 24.19404 | 36613 ft | 382 kts | 332° |
| 2026-05-05 18:04 | 37.29538 | 24.17935 | 36729 ft | 382 kts | 331° |
| 2026-05-05 18:05 | 37.31915 | 24.16445 | 36854 ft | 383 kts | 331° |
| 2026-05-05 18:05 | 37.34299 | 24.14951 | 36983 ft | 383 kts | 331° |
| 2026-05-05 18:05 | 37.36685 | 24.13455 | 37092 ft | 383 kts | 331° |
| 2026-05-05 18:05 | 37.39049 | 24.11972 | 37212 ft | 383 kts | 331° |
| 2026-05-05 18:06 | 37.41451 | 24.10463 | 37329 ft | 383 kts | 331° |
| 2026-05-05 18:06 | 37.46224 | 24.07462 | 37532 ft | 383 kts | 331° |
| 2026-05-05 18:06 | 37.48614 | 24.05958 | 37634 ft | 383 kts | 330° |
| 2026-05-05 18:07 | 37.51000 | 24.04456 | 37747 ft | 383 kts | 330° |
| 2026-05-05 18:07 | 37.55781 | 24.01440 | 37868 ft | 385 kts | 330° |
| 2026-05-05 18:08 | 37.60551 | 23.98428 | 38023 ft | 387 kts | 330° |
| 2026-05-05 18:08 | 37.65374 | 23.95378 | 38071 ft | 389 kts | 330° |
| 2026-05-05 18:09 | 37.70211 | 23.92315 | 38073 ft | 388 kts | 330° |
| 2026-05-05 18:09 | 37.75033 | 23.89258 | 38084 ft | 388 kts | 330° |
| 2026-05-05 18:10 | 37.79859 | 23.86192 | 38075 ft | 389 kts | 330° |
| 2026-05-05 18:10 | 37.84696 | 23.83116 | 38077 ft | 389 kts | 330° |
| 2026-05-05 18:11 | 37.89754 | 23.80625 | 38076 ft | 394 kts | 342° |
| 2026-05-05 18:11 | 37.95080 | 23.79501 | 38078 ft | 398 kts | 347° |
| 2026-05-05 18:12 | 38.00588 | 23.78689 | 38060 ft | 399 kts | 349° |
| 2026-05-05 18:12 | 38.06110 | 23.77939 | 38059 ft | 399 kts | 349° |
| 2026-05-05 18:13 | 38.10697 | 23.77300 | 38056 ft | 399 kts | 348° |
| 2026-05-05 18:13 | 38.16216 | 23.76510 | 38058 ft | 399 kts | 348° |
| 2026-05-05 18:14 | 38.21741 | 23.75709 | 38075 ft | 399 kts | 348° |
| 2026-05-05 18:14 | 38.27253 | 23.74911 | 38048 ft | 399 kts | 348° |
| 2026-05-05 18:15 | 38.32773 | 23.74108 | 38071 ft | 399 kts | 348° |
| 2026-05-05 18:15 | 38.38285 | 23.73309 | 38071 ft | 399 kts | 348° |